createdAt,value
2017-11-25T00:00:58.955Z,277.80
2017-11-25T00:01:58.932Z,256.90
2017-11-25T00:02:58.901Z,258.00
2017-11-25T00:03:58.865Z,258.80
2017-11-25T00:04:58.838Z,258.40
2017-11-25T00:05:58.810Z,269.70
2017-11-25T00:06:58.776Z,250.30
2017-11-25T00:07:58.745Z,254.70
2017-11-25T00:08:58.711Z,257.40
2017-11-25T00:09:58.689Z,273.30
2017-11-25T00:10:58.660Z,276.00
2017-11-25T00:11:58.637Z,281.40
2017-11-25T00:12:58.593Z,281.10
2017-11-25T00:13:58.576Z,288.40
2017-11-25T00:14:58.539Z,270.70
2017-11-25T00:15:58.513Z,288.10
2017-11-25T00:16:58.480Z,265.50
2017-11-25T00:17:58.704Z,285.80
2017-11-25T00:18:58.421Z,268.40
2017-11-25T00:19:58.384Z,288.80
2017-11-25T00:20:58.362Z,290.60
2017-11-25T00:21:58.332Z,293.50
2017-11-25T00:22:58.297Z,284.80
2017-11-25T00:23:58.514Z,280.60
2017-11-25T00:24:58.237Z,297.40
2017-11-25T00:25:58.216Z,295.90
2017-11-25T00:26:58.188Z,296.60
2017-11-25T00:27:58.156Z,298.60
2017-11-25T00:28:58.120Z,290.00
2017-11-25T00:29:58.087Z,302.60
2017-11-25T00:30:58.057Z,305.50
2017-11-25T00:31:58.029Z,268.40
2017-11-25T00:32:58.002Z,271.60
2017-11-25T00:33:57.980Z,276.10
2017-11-25T00:34:57.937Z,251.40
2017-11-25T00:35:58.166Z,268.60
2017-11-25T00:36:57.881Z,275.00
2017-11-25T00:37:57.855Z,278.40
2017-11-25T00:38:57.818Z,251.20
2017-11-25T00:39:57.790Z,265.70
2017-11-25T00:40:57.764Z,249.70
2017-11-25T00:41:58.030Z,244.70
2017-11-25T00:42:57.721Z,240.50
2017-11-25T00:43:57.672Z,269.00
2017-11-25T00:44:57.641Z,270.60
2017-11-25T00:45:57.632Z,262.20
2017-11-25T00:46:57.590Z,258.20
2017-11-25T00:47:57.560Z,258.30
2017-11-25T00:48:57.535Z,263.50
2017-11-25T00:49:57.494Z,260.20
2017-11-25T00:50:57.465Z,236.40
2017-11-25T00:51:57.446Z,235.60
2017-11-25T00:52:57.408Z,235.30
2017-11-25T00:53:57.685Z,215.60
2017-11-25T00:54:57.344Z,227.20
2017-11-25T00:55:57.322Z,246.50
2017-11-25T00:56:57.295Z,246.70
2017-11-25T00:57:57.266Z,242.40
2017-11-25T00:58:57.479Z,249.00
2017-11-25T00:59:57.199Z,253.30
2017-11-25T01:00:57.173Z,250.40
2017-11-25T01:01:57.147Z,242.70
2017-11-25T01:02:57.114Z,252.90
2017-11-25T01:03:57.090Z,249.50
2017-11-25T01:04:57.056Z,266.00
2017-11-25T01:05:57.022Z,270.80
2017-11-25T01:06:56.993Z,264.10
2017-11-25T01:07:56.996Z,267.30
2017-11-25T01:08:56.933Z,278.60
2017-11-25T01:09:56.901Z,291.20
2017-11-25T01:10:56.869Z,263.00
2017-11-25T01:11:56.845Z,277.90
2017-11-25T01:12:56.813Z,276.70
2017-11-25T01:13:56.789Z,299.10
2017-11-25T01:14:56.761Z,318.30
2017-11-25T01:15:56.721Z,334.60
2017-11-25T01:16:56.947Z,332.70
2017-11-25T01:17:56.669Z,310.10
2017-11-25T01:18:56.646Z,322.90
2017-11-25T01:19:56.607Z,311.30
2017-11-25T01:20:56.574Z,301.60
2017-11-25T01:21:56.543Z,319.50
2017-11-25T01:22:56.776Z,308.30
2017-11-25T01:23:56.499Z,322.80
2017-11-25T01:24:56.456Z,331.40
2017-11-25T01:25:56.431Z,322.60
2017-11-25T01:26:56.414Z,333.90
2017-11-25T01:27:56.372Z,320.80
2017-11-25T01:28:56.340Z,315.60
2017-11-25T01:29:56.318Z,329.50
2017-11-25T01:30:56.279Z,323.30
2017-11-25T01:31:56.255Z,335.90
2017-11-25T01:32:56.221Z,323.70
2017-11-25T01:33:56.185Z,319.50
2017-11-25T01:34:56.164Z,337.70
2017-11-25T01:35:56.126Z,335.40
2017-11-25T01:36:56.102Z,336.70
2017-11-25T01:37:56.071Z,335.40
2017-11-25T01:38:56.048Z,315.00
2017-11-25T01:39:56.014Z,317.50
2017-11-25T01:40:55.985Z,328.10
2017-11-25T01:41:55.957Z,334.40
2017-11-25T01:42:55.923Z,338.30
2017-11-25T01:43:55.896Z,327.20
2017-11-25T01:44:55.870Z,344.90
2017-11-25T01:45:56.584Z,336.70
2017-11-25T01:46:55.808Z,344.50
2017-11-25T01:47:55.771Z,316.80
2017-11-25T01:48:55.739Z,320.70
2017-11-25T01:49:55.724Z,323.60
2017-11-25T01:50:55.680Z,340.40
2017-11-25T01:51:55.649Z,359.90
2017-11-25T01:52:55.630Z,356.40
2017-11-25T01:53:55.597Z,339.20
2017-11-25T01:54:55.562Z,331.80
2017-11-25T01:55:55.534Z,346.20
2017-11-25T01:56:55.516Z,333.30
2017-11-25T01:57:56.039Z,348.10
2017-11-25T01:58:55.454Z,331.70
2017-11-25T01:59:55.420Z,336.80
2017-11-25T02:00:55.381Z,336.10
2017-11-25T02:01:55.354Z,335.90
2017-11-25T02:02:55.325Z,348.10
2017-11-25T02:03:55.302Z,342.70
2017-11-25T02:04:55.275Z,346.90
2017-11-25T02:05:55.242Z,337.70
2017-11-25T02:06:55.210Z,343.90
2017-11-25T02:07:55.179Z,359.90
2017-11-25T02:08:55.150Z,360.60
2017-11-25T02:09:55.727Z,367.50
2017-11-25T02:10:55.089Z,376.30
2017-11-25T02:11:55.065Z,352.70
2017-11-25T02:12:55.025Z,373.70
2017-11-25T02:13:55.003Z,377.20
2017-11-25T02:14:54.974Z,398.80
2017-11-25T02:15:54.945Z,381.10
2017-11-25T02:16:54.906Z,388.70
2017-11-25T02:17:54.877Z,379.10
2017-11-25T02:18:54.847Z,391.50
2017-11-25T02:19:54.819Z,417.00
2017-11-25T02:20:54.786Z,392.60
2017-11-25T02:21:55.009Z,389.50
2017-11-25T02:22:54.727Z,413.00
2017-11-25T02:23:54.706Z,428.00
2017-11-25T02:24:54.672Z,388.50
2017-11-25T02:25:54.641Z,390.30
2017-11-25T02:26:54.617Z,427.00
2017-11-25T02:27:54.599Z,436.40
2017-11-25T02:28:54.553Z,434.40
2017-11-25T02:29:54.519Z,413.50
2017-11-25T02:30:54.500Z,415.60
2017-11-25T02:31:54.469Z,401.00
2017-11-25T02:32:54.429Z,418.90
2017-11-25T02:33:54.661Z,413.30
2017-11-25T02:34:54.371Z,405.50
2017-11-25T02:35:54.354Z,428.60
2017-11-25T02:36:54.309Z,417.40
2017-11-25T02:37:54.292Z,421.40
2017-11-25T02:38:54.251Z,429.50
2017-11-25T02:39:54.226Z,405.20
2017-11-25T02:40:54.199Z,420.00
2017-11-25T02:41:54.169Z,437.30
2017-11-25T02:42:54.159Z,449.70
2017-11-25T02:43:54.113Z,418.10
2017-11-25T02:44:54.073Z,460.10
2017-11-25T02:45:54.342Z,409.40
2017-11-25T02:46:54.028Z,390.20
2017-11-25T02:47:54.004Z,408.50
2017-11-25T02:48:53.966Z,454.40
2017-11-25T02:49:53.935Z,461.30
2017-11-25T02:50:53.902Z,473.20
2017-11-25T02:51:53.874Z,479.90
2017-11-25T02:52:53.833Z,461.40
2017-11-25T02:53:53.817Z,483.70
2017-11-25T02:54:53.782Z,475.30
2017-11-25T02:55:53.752Z,482.60
2017-11-25T02:56:53.721Z,548.90
2017-11-25T02:57:53.971Z,508.70
2017-11-25T02:58:53.658Z,488.20
2017-11-25T02:59:53.624Z,513.20
2017-11-25T03:00:53.609Z,507.70
2017-11-25T03:01:53.581Z,509.90
2017-11-25T03:02:53.537Z,508.60
2017-11-25T03:03:53.809Z,528.00
2017-11-25T03:04:53.491Z,537.10
2017-11-25T03:05:53.449Z,533.40
2017-11-25T03:06:53.427Z,479.10
2017-11-25T03:07:53.386Z,497.70
2017-11-25T03:08:53.364Z,521.30
2017-11-25T03:09:53.579Z,495.90
2017-11-25T03:10:53.309Z,510.40
2017-11-25T03:11:53.276Z,442.80
2017-11-25T03:12:53.253Z,497.70
2017-11-25T03:13:53.221Z,544.00
2017-11-25T03:14:53.187Z,480.30
2017-11-25T03:15:53.155Z,462.90
2017-11-25T03:16:53.140Z,493.20
2017-11-25T03:17:53.095Z,469.70
2017-11-25T03:18:53.060Z,471.90
2017-11-25T03:19:53.042Z,489.20
2017-11-25T03:20:53.012Z,619.60
2017-11-25T03:21:52.981Z,581.50
2017-11-25T03:22:52.948Z,895.20
2017-11-25T03:23:52.922Z,737.70
2017-11-25T03:24:52.888Z,541.00
2017-11-25T03:25:52.861Z,566.60
2017-11-25T03:26:52.824Z,582.30
2017-11-25T03:27:52.799Z,609.20
2017-11-25T03:28:52.778Z,934.40
2017-11-25T03:29:52.753Z,1364.60
2017-11-25T03:30:52.722Z,1025.70
2017-11-25T03:31:52.677Z,956.40
2017-11-25T03:32:52.909Z,648.00
2017-11-25T03:33:52.624Z,807.90
2017-11-25T03:34:52.595Z,906.20
2017-11-25T03:35:52.556Z,1380.00
2017-11-25T03:36:52.545Z,929.20
2017-11-25T03:37:52.507Z,879.30
2017-11-25T03:38:52.739Z,952.00
2017-11-25T03:39:52.443Z,1289.80
2017-11-25T03:40:52.417Z,1631.00
2017-11-25T03:41:52.398Z,1597.40
2017-11-25T03:42:52.357Z,1237.10
2017-11-25T03:43:52.572Z,971.80
2017-11-25T03:44:52.294Z,949.20
2017-11-25T03:45:52.267Z,941.60
2017-11-25T03:46:52.236Z,1110.30
2017-11-25T03:47:52.204Z,1320.70
2017-11-25T03:48:52.178Z,1140.70
2017-11-25T03:49:52.154Z,1400.10
2017-11-25T03:50:52.112Z,876.20
2017-11-25T03:51:52.091Z,1617.60
2017-11-25T03:52:52.071Z,1026.60
2017-11-25T03:53:52.041Z,715.10
2017-11-25T03:54:52.002Z,1028.70
2017-11-25T03:55:52.269Z,807.10
2017-11-25T03:56:51.945Z,1164.10
2017-11-25T03:57:51.908Z,1033.70
2017-11-25T03:58:51.879Z,1304.80
2017-11-25T03:59:51.855Z,1645.80
2017-11-25T04:00:51.863Z,1418.70
2017-11-25T04:01:51.811Z,1021.60
2017-11-25T04:02:51.800Z,1698.60
2017-11-25T04:03:51.739Z,1365.50
2017-11-25T04:04:51.715Z,1512.80
2017-11-25T04:05:51.696Z,1520.50
2017-11-25T04:06:51.641Z,1214.80
2017-11-25T04:07:51.617Z,1580.40
2017-11-25T04:08:51.582Z,1282.40
2017-11-25T04:09:51.561Z,1229.60
2017-11-25T04:10:51.531Z,1414.70
2017-11-25T04:11:51.498Z,1387.70
2017-11-25T04:12:51.470Z,1146.00
2017-11-25T04:13:51.686Z,1176.80
2017-11-25T04:14:51.404Z,1260.40
2017-11-25T04:15:51.385Z,1101.00
2017-11-25T04:16:51.356Z,1220.50
2017-11-25T04:17:51.329Z,1487.00
2017-11-25T04:18:51.545Z,1718.10
2017-11-25T04:19:51.261Z,1550.80
2017-11-25T04:20:51.238Z,1310.20
2017-11-25T04:21:51.218Z,1615.30
2017-11-25T04:22:51.176Z,1443.00
2017-11-25T04:23:51.146Z,1361.20
2017-11-25T04:24:51.117Z,1482.00
2017-11-25T04:25:51.082Z,1209.80
2017-11-25T04:26:51.060Z,1458.70
2017-11-25T04:27:51.034Z,1313.00
2017-11-25T04:28:50.993Z,1558.90
2017-11-25T04:29:50.964Z,1159.20
2017-11-25T04:30:50.931Z,1521.50
2017-11-25T04:31:50.906Z,1244.70
2017-11-25T04:32:50.877Z,1119.00
2017-11-25T04:33:50.852Z,1811.00
2017-11-25T04:34:50.820Z,1969.10
2017-11-25T04:35:50.792Z,1598.40
2017-11-25T04:36:50.754Z,1662.00
2017-11-25T04:37:50.733Z,1570.70
2017-11-25T04:38:50.708Z,1568.40
2017-11-25T04:39:50.677Z,1500.90
2017-11-25T04:40:50.646Z,1719.70
2017-11-25T04:41:50.614Z,1862.20
2017-11-25T04:42:50.580Z,1999.90
2017-11-25T04:43:50.556Z,1484.10
2017-11-25T04:44:50.531Z,1435.00
2017-11-25T04:45:50.495Z,1406.50
2017-11-25T04:46:50.460Z,1428.20
2017-11-25T04:47:50.429Z,1370.10
2017-11-25T04:48:50.661Z,1297.70
2017-11-25T04:49:50.384Z,1577.70
2017-11-25T04:50:50.343Z,942.60
2017-11-25T04:51:50.316Z,1314.80
2017-11-25T04:52:50.292Z,1803.60
2017-11-25T04:53:50.266Z,1930.50
2017-11-25T04:54:50.585Z,1341.70
2017-11-25T04:55:50.193Z,1011.70
2017-11-25T04:56:50.172Z,1132.20
2017-11-25T04:57:50.145Z,930.60
2017-11-25T04:58:50.113Z,973.60
2017-11-25T04:59:50.085Z,1184.20
2017-11-25T05:00:50.062Z,1076.20
2017-11-25T05:01:50.024Z,1211.80
2017-11-25T05:02:49.990Z,1117.90
2017-11-25T05:03:49.961Z,1329.50
2017-11-25T05:04:49.930Z,975.70
2017-11-25T05:05:49.915Z,770.50
2017-11-25T05:06:50.625Z,1348.80
2017-11-25T05:07:49.846Z,1303.90
2017-11-25T05:08:49.822Z,1266.70
2017-11-25T05:09:49.782Z,1232.90
2017-11-25T05:10:49.757Z,1339.70
2017-11-25T05:11:49.731Z,1346.80
2017-11-25T05:12:49.693Z,1244.20
2017-11-25T05:13:49.672Z,1806.70
2017-11-25T05:14:49.639Z,1408.90
2017-11-25T05:15:49.605Z,1046.40
2017-11-25T05:16:49.582Z,1057.40
2017-11-25T05:17:49.557Z,978.60
2017-11-25T05:18:49.823Z,1239.70
2017-11-25T05:19:49.492Z,1174.00
2017-11-25T05:20:49.456Z,1300.40
2017-11-25T05:21:49.434Z,1594.70
2017-11-25T05:22:49.405Z,1458.20
2017-11-25T05:23:49.370Z,1425.50
2017-11-25T05:24:49.352Z,1569.20
2017-11-25T05:25:49.330Z,1249.10
2017-11-25T05:26:49.277Z,1341.80
2017-11-25T05:27:49.253Z,1088.40
2017-11-25T05:28:49.227Z,1271.10
2017-11-25T05:29:49.448Z,1328.50
2017-11-25T05:30:49.172Z,1379.30
2017-11-25T05:31:49.141Z,1125.70
2017-11-25T05:32:49.100Z,867.20
2017-11-25T05:33:49.077Z,1256.70
2017-11-25T05:34:49.045Z,1121.80
2017-11-25T05:35:49.325Z,880.60
2017-11-25T05:36:48.987Z,1114.60
2017-11-25T05:37:48.956Z,1222.20
2017-11-25T05:38:48.928Z,825.90
2017-11-25T05:39:48.906Z,1057.30
2017-11-25T05:40:48.871Z,1349.90
2017-11-25T05:41:49.096Z,1321.80
2017-11-25T05:42:48.811Z,1507.20
2017-11-25T05:43:49.830Z,1213.00
2017-11-25T05:44:48.750Z,1610.40
2017-11-25T05:45:48.736Z,1537.50
2017-11-25T05:46:48.697Z,1170.60
2017-11-25T05:47:48.920Z,1282.40
2017-11-25T05:48:48.643Z,1165.90
2017-11-25T05:49:48.609Z,1506.90
2017-11-25T05:50:48.589Z,1392.60
2017-11-25T05:51:48.553Z,1092.70
2017-11-25T05:52:48.525Z,1007.40
2017-11-25T05:53:48.757Z,1458.30
2017-11-25T05:54:48.465Z,1369.70
2017-11-25T05:55:48.431Z,1293.40
2017-11-25T05:56:48.398Z,1004.60
2017-11-25T05:57:48.370Z,1336.70
2017-11-25T05:58:48.339Z,1706.00
2017-11-25T05:59:48.317Z,1357.70
2017-11-25T06:00:48.277Z,1302.00
2017-11-25T06:01:48.252Z,983.70
2017-11-25T06:02:48.219Z,1351.40
2017-11-25T06:03:48.193Z,1295.40
2017-11-25T06:04:48.167Z,1618.90
2017-11-25T06:05:48.141Z,1468.80
2017-11-25T06:06:48.113Z,1511.50
2017-11-25T06:07:48.079Z,977.10
2017-11-25T06:08:48.046Z,1024.70
2017-11-25T06:09:48.013Z,1073.10
2017-11-25T06:10:47.989Z,1009.80
2017-11-25T06:11:47.954Z,1114.10
2017-11-25T06:12:47.931Z,1202.30
2017-11-25T06:13:47.902Z,1003.70
2017-11-25T06:14:47.866Z,1176.70
2017-11-25T06:15:47.835Z,1588.10
2017-11-25T06:16:47.816Z,1684.10
2017-11-25T06:17:48.037Z,1534.90
2017-11-25T06:18:47.750Z,1513.40
2017-11-25T06:19:47.717Z,1173.10
2017-11-25T06:20:47.688Z,1295.90
2017-11-25T06:21:47.663Z,1346.50
2017-11-25T06:22:47.892Z,1144.20
2017-11-25T06:23:47.603Z,1272.30
2017-11-25T06:24:47.572Z,1010.30
2017-11-25T06:25:47.541Z,1142.10
2017-11-25T06:26:47.510Z,1383.30
2017-11-25T06:27:47.486Z,1709.90
2017-11-25T06:28:47.759Z,1870.80
2017-11-25T06:29:47.423Z,1700.00
2017-11-25T06:30:47.398Z,1080.50
2017-11-25T06:31:47.379Z,1521.00
2017-11-25T06:32:47.339Z,1838.80
2017-11-25T06:33:47.311Z,1307.60
2017-11-25T06:34:47.534Z,1232.90
2017-11-25T06:35:47.266Z,1111.80
2017-11-25T06:36:47.285Z,1324.70
2017-11-25T06:37:47.186Z,1256.70
2017-11-25T06:38:47.166Z,1079.90
2017-11-25T06:39:47.135Z,1156.00
2017-11-25T06:40:47.110Z,1535.50
2017-11-25T06:41:47.070Z,1380.80
2017-11-25T06:42:47.044Z,1465.30
2017-11-25T06:43:47.006Z,1414.50
2017-11-25T06:44:46.991Z,943.90
2017-11-25T06:45:46.957Z,1021.90
2017-11-25T06:46:46.925Z,925.10
2017-11-25T06:47:46.898Z,964.10
2017-11-25T06:48:46.870Z,925.20
2017-11-25T06:49:46.839Z,1011.80
2017-11-25T06:50:46.799Z,1108.40
2017-11-25T06:51:46.779Z,1068.30
2017-11-25T06:52:46.750Z,929.90
2017-11-25T06:53:46.712Z,913.90
2017-11-25T06:54:46.690Z,1452.90
2017-11-25T06:55:46.662Z,1706.90
2017-11-25T06:56:46.621Z,1697.00
2017-11-25T06:57:46.601Z,1290.60
2017-11-25T06:58:46.816Z,1515.70
2017-11-25T06:59:46.534Z,1232.60
2017-11-25T07:00:46.512Z,1685.50
2017-11-25T07:01:46.496Z,1360.10
2017-11-25T07:02:46.444Z,1343.60
2017-11-25T07:03:46.427Z,1318.10
2017-11-25T07:04:46.641Z,1629.90
2017-11-25T07:05:46.371Z,1893.30
2017-11-25T07:06:46.336Z,1571.80
2017-11-25T07:07:46.299Z,1607.60
2017-11-25T07:08:46.276Z,1769.90
2017-11-25T07:09:46.247Z,1637.50
2017-11-25T07:10:46.209Z,1475.20
2017-11-25T07:11:46.180Z,1644.90
2017-11-25T07:12:46.149Z,1122.50
2017-11-25T07:13:46.138Z,1366.90
2017-11-25T07:14:46.097Z,1160.60
2017-11-25T07:15:46.359Z,1405.70
2017-11-25T07:16:46.041Z,1671.30
2017-11-25T07:17:46.006Z,1604.80
2017-11-25T07:18:45.980Z,1369.90
2017-11-25T07:19:45.947Z,1156.70
2017-11-25T07:20:45.909Z,1231.70
2017-11-25T07:21:45.897Z,800.70
2017-11-25T07:22:45.873Z,1022.00
2017-11-25T07:23:45.830Z,1279.10
2017-11-25T07:24:45.801Z,1057.10
2017-11-25T07:25:45.765Z,1080.30
2017-11-25T07:26:45.741Z,1017.30
2017-11-25T07:27:45.716Z,1305.20
2017-11-25T07:28:45.677Z,997.10
2017-11-25T07:29:45.656Z,1180.50
2017-11-25T07:30:45.623Z,1361.20
2017-11-25T07:31:45.585Z,1216.80
2017-11-25T07:32:45.556Z,1523.40
2017-11-25T07:33:45.530Z,1298.00
2017-11-25T07:34:45.503Z,979.10
2017-11-25T07:35:45.474Z,1280.30
2017-11-25T07:36:45.453Z,1049.70
2017-11-25T07:37:45.407Z,1319.20
2017-11-25T07:38:45.383Z,1454.40
2017-11-25T07:39:45.905Z,1451.40
2017-11-25T07:40:45.328Z,1468.80
2017-11-25T07:41:45.299Z,1758.20
2017-11-25T07:42:45.264Z,1466.30
2017-11-25T07:43:45.244Z,1325.60
2017-11-25T07:44:45.201Z,1156.10
2017-11-25T07:45:45.180Z,1236.40
2017-11-25T07:46:45.146Z,1140.70
2017-11-25T07:47:45.116Z,1009.00
2017-11-25T07:48:45.079Z,1283.80
2017-11-25T07:49:45.057Z,1097.50
2017-11-25T07:50:45.019Z,1206.10
2017-11-25T07:51:44.989Z,1155.10
2017-11-25T07:52:44.961Z,1700.70
2017-11-25T07:53:44.934Z,1699.20
2017-11-25T07:54:44.899Z,1288.20
2017-11-25T07:55:44.880Z,1405.10
2017-11-25T07:56:44.850Z,1304.10
2017-11-25T07:57:44.820Z,1205.10
2017-11-25T07:58:44.791Z,1045.50
2017-11-25T07:59:44.757Z,1046.80
2017-11-25T08:00:44.724Z,845.60
2017-11-25T08:01:44.696Z,1116.60
2017-11-25T08:02:44.673Z,1243.90
2017-11-25T08:03:44.635Z,1170.80
2017-11-25T08:04:44.615Z,1074.20
2017-11-25T08:05:44.581Z,911.00
2017-11-25T08:06:44.554Z,781.90
2017-11-25T08:07:44.527Z,888.80
2017-11-25T08:08:44.760Z,837.30
2017-11-25T08:09:44.471Z,1020.70
2017-11-25T08:10:44.434Z,1243.60
2017-11-25T08:11:44.404Z,812.70
2017-11-25T08:12:44.374Z,841.80
2017-11-25T08:13:44.347Z,825.50
2017-11-25T08:14:44.317Z,888.80
2017-11-25T08:15:44.281Z,714.60
2017-11-25T08:16:44.259Z,959.70
2017-11-25T08:17:44.224Z,815.40
2017-11-25T08:18:44.204Z,723.90
2017-11-25T08:19:44.182Z,929.30
2017-11-25T08:20:44.392Z,834.20
2017-11-25T08:21:44.118Z,777.90
2017-11-25T08:22:44.077Z,525.40
2017-11-25T08:23:44.048Z,813.50
2017-11-25T08:24:44.018Z,709.20
2017-11-25T08:25:43.991Z,1020.20
2017-11-25T08:26:43.964Z,996.30
2017-11-25T08:27:43.939Z,849.50
2017-11-25T08:28:43.898Z,813.60
2017-11-25T08:29:43.881Z,733.50
2017-11-25T08:30:43.846Z,791.30
2017-11-25T08:31:43.811Z,731.50
2017-11-25T08:32:43.790Z,693.10
2017-11-25T08:33:43.755Z,543.50
2017-11-25T08:34:43.729Z,541.90
2017-11-25T08:35:43.702Z,452.80
2017-11-25T08:36:43.677Z,400.50
2017-11-25T08:37:43.645Z,370.50
2017-11-25T08:38:43.694Z,342.80
2017-11-25T08:39:43.584Z,356.40
2017-11-25T08:40:43.551Z,352.40
2017-11-25T08:41:43.519Z,351.00
2017-11-25T08:42:43.498Z,337.80
2017-11-25T08:43:43.464Z,344.50
2017-11-25T08:44:43.436Z,341.10
2017-11-25T08:45:43.412Z,348.20
2017-11-25T08:46:43.380Z,408.60
2017-11-25T08:47:43.352Z,467.80
2017-11-25T08:48:43.319Z,464.60
2017-11-25T08:49:43.294Z,382.80
2017-11-25T08:50:43.264Z,341.80
2017-11-25T08:51:43.228Z,333.80
2017-11-25T08:52:43.214Z,279.60
2017-11-25T08:53:43.170Z,262.40
2017-11-25T08:54:43.149Z,267.40
2017-11-25T08:55:43.124Z,252.70
2017-11-25T08:56:43.087Z,258.40
2017-11-25T08:57:43.058Z,249.20
2017-11-25T08:58:43.032Z,226.70
2017-11-25T08:59:42.996Z,235.20
2017-11-25T09:00:42.982Z,219.00
2017-11-25T09:01:42.942Z,211.20
2017-11-25T09:02:42.918Z,226.90
2017-11-25T09:03:42.880Z,224.60
2017-11-25T09:04:42.862Z,215.30
2017-11-25T09:05:42.827Z,218.20
2017-11-25T09:06:42.800Z,234.40
2017-11-25T09:07:43.025Z,238.10
2017-11-25T09:08:42.737Z,247.90
2017-11-25T09:09:42.746Z,239.40
2017-11-25T09:10:42.683Z,241.90
2017-11-25T09:11:42.658Z,240.10
2017-11-25T09:12:42.628Z,235.20
2017-11-25T09:13:42.899Z,224.60
2017-11-25T09:14:42.560Z,253.00
2017-11-25T09:15:42.541Z,242.30
2017-11-25T09:16:42.516Z,220.80
2017-11-25T09:17:42.476Z,210.20
2017-11-25T09:18:42.445Z,216.30
2017-11-25T09:19:42.424Z,200.20
2017-11-25T09:20:42.397Z,198.60
2017-11-25T09:21:42.368Z,190.80
2017-11-25T09:22:42.328Z,201.00
2017-11-25T09:23:42.306Z,181.80
2017-11-25T09:24:42.271Z,187.90
2017-11-25T09:25:42.499Z,197.00
2017-11-25T09:26:42.231Z,208.40
2017-11-25T09:27:42.187Z,187.40
2017-11-25T09:28:42.163Z,179.00
2017-11-25T09:29:42.138Z,208.00
2017-11-25T09:30:42.106Z,205.40
2017-11-25T09:31:42.080Z,194.20
2017-11-25T09:32:42.053Z,188.00
2017-11-25T09:33:42.023Z,194.40
2017-11-25T09:34:41.984Z,193.50
2017-11-25T09:35:41.968Z,187.70
2017-11-25T09:36:41.926Z,208.30
2017-11-25T09:37:42.147Z,202.40
2017-11-25T09:38:41.876Z,210.80
2017-11-25T09:39:41.850Z,208.90
2017-11-25T09:40:41.818Z,209.00
2017-11-25T09:41:41.789Z,222.40
2017-11-25T09:42:41.753Z,218.20
2017-11-25T09:43:41.728Z,208.30
2017-11-25T09:44:41.704Z,212.40
2017-11-25T09:45:41.675Z,207.20
2017-11-25T09:46:41.657Z,207.00
2017-11-25T09:47:41.618Z,190.30
2017-11-25T09:48:41.588Z,198.40
2017-11-25T09:49:41.860Z,204.40
2017-11-25T09:50:41.530Z,194.20
2017-11-25T09:51:41.493Z,208.20
2017-11-25T09:52:41.473Z,193.20
2017-11-25T09:53:41.433Z,200.70
2017-11-25T09:54:41.413Z,217.80
2017-11-25T09:55:41.383Z,206.40
2017-11-25T09:56:41.347Z,195.40
2017-11-25T09:57:41.325Z,201.50
2017-11-25T09:58:41.288Z,202.40
2017-11-25T09:59:41.258Z,210.30
2017-11-25T10:00:41.237Z,195.60
2017-11-25T10:01:41.207Z,210.20
2017-11-25T10:02:41.172Z,218.00
2017-11-25T10:03:41.156Z,207.00
2017-11-25T10:04:41.116Z,238.90
2017-11-25T10:05:41.086Z,237.30
2017-11-25T10:06:41.068Z,243.20
2017-11-25T10:07:41.283Z,238.30
2017-11-25T10:08:40.999Z,214.90
2017-11-25T10:09:40.968Z,216.40
2017-11-25T10:10:40.954Z,221.80
2017-11-25T10:11:40.914Z,207.60
2017-11-25T10:12:40.882Z,238.40
2017-11-25T10:13:41.160Z,254.50
2017-11-25T10:14:40.827Z,258.70
2017-11-25T10:15:40.805Z,261.30
2017-11-25T10:16:40.781Z,293.70
2017-11-25T10:17:40.749Z,266.40
2017-11-25T10:18:40.725Z,350.00
2017-11-25T10:19:40.680Z,263.30
2017-11-25T10:20:40.650Z,202.40
2017-11-25T10:21:40.627Z,202.40
2017-11-25T10:22:40.600Z,186.60
2017-11-25T10:23:40.579Z,188.40
2017-11-25T10:24:40.562Z,197.60
2017-11-25T10:25:40.514Z,215.40
2017-11-25T10:26:40.483Z,205.90
2017-11-25T10:27:40.456Z,206.60
2017-11-25T10:28:40.423Z,201.00
2017-11-25T10:29:40.401Z,183.50
2017-11-25T10:30:40.365Z,188.60
2017-11-25T10:31:40.331Z,202.70
2017-11-25T10:32:40.303Z,173.40
2017-11-25T10:33:40.284Z,180.20
2017-11-25T10:34:40.248Z,218.80
2017-11-25T10:35:40.215Z,191.30
2017-11-25T10:36:40.200Z,153.70
2017-11-25T10:37:40.412Z,188.20
2017-11-25T10:38:40.146Z,156.20
2017-11-25T10:39:40.104Z,138.10
2017-11-25T10:40:40.083Z,162.10
2017-11-25T10:41:40.047Z,136.10
2017-11-25T10:42:40.013Z,120.50
2017-11-25T10:43:39.988Z,119.80
2017-11-25T10:44:39.963Z,132.60
2017-11-25T10:45:39.940Z,139.70
2017-11-25T10:46:39.911Z,141.20
2017-11-25T10:47:39.871Z,126.10
2017-11-25T10:48:40.200Z,123.10
2017-11-25T10:49:39.853Z,111.80
2017-11-25T10:50:39.785Z,107.00
2017-11-25T10:51:39.765Z,140.90
2017-11-25T10:52:39.738Z,126.30
2017-11-25T10:53:39.709Z,114.80
2017-11-25T10:54:39.674Z,110.70
2017-11-25T10:55:39.648Z,112.40
2017-11-25T10:56:39.624Z,93.60
2017-11-25T10:57:39.601Z,87.50
2017-11-25T10:58:39.566Z,88.60
2017-11-25T10:59:39.539Z,97.40
2017-11-25T11:00:39.505Z,95.30
2017-11-25T11:01:39.483Z,105.50
2017-11-25T11:02:39.448Z,102.80
2017-11-25T11:03:39.426Z,108.80
2017-11-25T11:04:39.395Z,106.00
2017-11-25T11:05:39.370Z,96.70
2017-11-25T11:06:39.344Z,98.00
2017-11-25T11:07:39.313Z,72.50
2017-11-25T11:08:39.280Z,68.20
2017-11-25T11:09:39.258Z,71.60
2017-11-25T11:10:39.235Z,65.70
2017-11-25T11:11:39.206Z,57.80
2017-11-25T11:12:39.479Z,58.10
2017-11-25T11:13:39.150Z,53.20
2017-11-25T11:14:39.144Z,72.80
2017-11-25T11:15:39.097Z,75.40
2017-11-25T11:16:39.067Z,58.70
2017-11-25T11:17:39.051Z,51.90
2017-11-25T11:18:39.364Z,54.20
2017-11-25T11:19:38.983Z,53.20
2017-11-25T11:20:38.954Z,45.60
2017-11-25T11:21:38.934Z,44.10
2017-11-25T11:22:38.911Z,40.70
2017-11-25T11:23:38.884Z,38.90
2017-11-25T11:24:38.853Z,34.80
2017-11-25T11:25:38.823Z,36.10
2017-11-25T11:26:38.799Z,34.20
2017-11-25T11:27:38.777Z,33.50
2017-11-25T11:28:38.744Z,29.20
2017-11-25T11:29:38.717Z,34.90
2017-11-25T11:30:38.690Z,42.20
2017-11-25T11:31:38.675Z,36.80
2017-11-25T11:32:38.640Z,37.30
2017-11-25T11:33:38.617Z,36.40
2017-11-25T11:34:38.596Z,33.20
2017-11-25T11:35:38.566Z,29.10
2017-11-25T11:36:38.550Z,33.90
2017-11-25T11:37:38.530Z,34.80
2017-11-25T11:38:38.490Z,33.60
2017-11-25T11:39:38.481Z,29.60
2017-11-25T11:40:38.440Z,27.90
2017-11-25T11:41:38.423Z,29.10
2017-11-25T11:42:38.400Z,32.10
2017-11-25T11:43:38.368Z,28.00
2017-11-25T11:44:38.348Z,27.70
2017-11-25T11:45:38.316Z,29.50
2017-11-25T11:46:38.316Z,29.10
2017-11-25T11:47:38.270Z,28.40
2017-11-25T11:48:38.250Z,27.80
2017-11-25T11:49:38.226Z,34.90
2017-11-25T11:50:38.201Z,30.90
2017-11-25T11:51:38.173Z,32.70
2017-11-25T11:52:38.147Z,37.60
2017-11-25T11:53:38.129Z,33.90
2017-11-25T11:54:38.453Z,32.90
2017-11-25T11:55:38.069Z,35.80
2017-11-25T11:56:38.045Z,38.70
2017-11-25T11:57:38.029Z,42.90
2017-11-25T11:58:37.986Z,42.80
2017-11-25T11:59:37.975Z,42.10
2017-11-25T12:00:38.190Z,40.60
2017-11-25T12:01:37.926Z,38.00
2017-11-25T12:02:37.889Z,42.10
2017-11-25T12:03:37.862Z,44.10
2017-11-25T12:04:37.832Z,45.80
2017-11-25T12:05:37.809Z,41.90
2017-11-25T12:06:37.777Z,44.70
2017-11-25T12:07:37.759Z,41.60
2017-11-25T12:08:37.730Z,39.80
2017-11-25T12:09:37.706Z,33.60
2017-11-25T12:10:37.677Z,37.40
2017-11-25T12:11:37.650Z,37.80
2017-11-25T12:12:37.874Z,35.20
2017-11-25T12:13:37.594Z,34.40
2017-11-25T12:14:37.571Z,38.10
2017-11-25T12:15:37.544Z,34.80
2017-11-25T12:16:37.511Z,35.50
2017-11-25T12:17:37.498Z,31.60
2017-11-25T12:18:37.468Z,39.50
2017-11-25T12:19:37.444Z,43.30
2017-11-25T12:20:37.415Z,42.50
2017-11-25T12:21:37.379Z,55.20
2017-11-25T12:22:37.363Z,46.90
2017-11-25T12:23:37.333Z,47.20